Time;durP1;ratioP1;P1;durP2;ratioP2;P2;SDS_P1;SDS_P2;PMS_P1;PMS_P2;Temp;Humidity;BMP_temperature;BMP_pressure;BME280_temperature;BME280_humidity;BME280_pressure;Samples;Min_cycle;Max_cycle;Signal;HPM_P1;HPM_P2
2022/10/11 00:01:22;;;;;;;10.27;9.13;;;;;;;14.69;66.81;95546.31;5116099;28;20200;-68
2022/10/11 00:04:09;;;;;;;9.90;8.90;;;;;;;14.71;66.79;95543.19;5115680;28;20203;-68
2022/10/11 00:06:56;;;;;;;10.20;9.30;;;;;;;14.72;66.92;95544.78;5115814;28;20195;-68
2022/10/11 00:09:43;;;;;;;10.98;9.98;;;;;;;14.72;65.86;95547.56;5116189;28;20195;-67
2022/10/11 00:12:31;;;;;;;10.80;9.80;;;;;;;14.74;65.71;95547.19;5116017;28;20563;-68
2022/10/11 00:15:20;;;;;;;10.93;9.85;;;;;;;14.76;65.97;95547.63;5115749;28;20211;-67
2022/10/11 00:18:07;;;;;;;10.90;9.88;;;;;;;14.76;65.67;95544.84;5115535;28;20261;-68
2022/10/11 00:21:01;;;;;;;11.25;10.15;;;;;;;14.77;65.56;95549.22;5115319;28;20192;-68
2022/10/11 00:23:49;;;;;;;12.43;10.60;;;;;;;14.77;65.26;95543.69;5114878;28;20580;-68
2022/10/11 00:26:35;;;;;;;11.68;10.60;;;;;;;14.79;65.44;95546.91;5115330;28;20245;-68
2022/10/11 00:29:24;;;;;;;12.07;10.88;;;;;;;14.80;65.56;95540.16;5117783;28;20245;-68
2022/10/11 00:32:10;;;;;;;12.02;10.82;;;;;;;14.78;65.36;95539.72;5115196;28;20200;-68
2022/10/11 00:35:03;;;;;;;11.77;10.68;;;;;;;14.78;65.51;95542.50;5117702;28;20195;-68
2022/10/11 00:37:50;;;;;;;12.98;11.65;;;;;;;14.78;65.43;95536.94;5117571;28;20204;-68
2022/10/11 00:40:37;;;;;;;13.02;11.73;;;;;;;14.78;65.29;95539.72;5117934;28;20211;-68
2022/10/11 00:43:30;;;;;;;14.10;12.00;;;;;;;14.77;65.52;95535.34;5115022;28;20211;-68
2022/10/11 00:46:30;;;;;;;13.23;11.75;;;;;;;14.76;65.44;95536.53;5117518;28;20203;-68
2022/10/11 00:49:24;;;;;;;13.50;12.20;;;;;;;14.75;65.41;95540.47;5114638;28;20204;-68
2022/10/11 00:52:15;;;;;;;13.43;12.13;;;;;;;14.70;65.70;95533.25;5115249;28;20227;-68
2022/10/11 00:55:04;;;;;;;12.90;11.52;;;;;;;14.70;65.73;95530.47;5114894;28;20196;-68
2022/10/11 00:57:52;;;;;;;12.27;11.23;;;;;;;14.68;66.02;95544.72;5115271;28;20225;-68
2022/10/11 01:00:39;;;;;;;13.95;12.55;;;;;;;14.65;66.29;95531.56;5114889;28;20204;-68
2022/10/11 01:03:38;;;;;;;14.93;13.30;;;;;;;14.65;66.26;95541.88;5114682;28;20647;-68
2022/10/11 01:06:23;;;;;;;14.38;12.60;;;;;;;14.63;65.98;95538.66;5117481;28;20332;-68
2022/10/11 01:09:08;;;;;;;13.73;12.43;;;;;;;14.62;66.08;95531.50;5117020;28;20183;-68
2022/10/11 01:11:56;;;;;;;13.82;12.52;;;;;;;14.61;66.16;95532.69;5117243;28;20195;-68
2022/10/11 01:15:04;;;;;;;14.07;12.68;;;;;;;14.59;66.25;95538.59;5117241;28;20183;-68
2022/10/11 01:17:53;;;;;;;13.77;12.48;;;;;;;14.59;66.38;95532.22;5117103;28;20190;-68
2022/10/11 01:20:45;;;;;;;14.18;12.90;;;;;;;14.56;66.35;95530.19;5117031;28;20194;-68
2022/10/11 01:24:11;;;;;;;13.82;12.38;;;;;;;14.56;66.51;95531.03;5117173;28;20187;-68
2022/10/11 01:27:24;;;;;;;14.35;12.82;;;;;;;14.56;66.65;95525.47;5116481;28;20194;-68
2022/10/11 01:30:21;;;;;;;14.63;13.13;;;;;;;14.55;66.60;95523.84;5117084;28;20187;-68
2022/10/11 01:33:21;;;;;;;13.57;12.38;;;;;;;14.53;66.70;95528.97;5116908;28;20252;-68
2022/10/11 01:36:12;;;;;;;14.60;13.00;;;;;;;14.52;66.52;95521.00;5116787;28;20187;-68
2022/10/11 01:39:01;;;;;;;14.52;13.10;;;;;;;14.50;66.59;95524.16;5116941;28;20222;-68
2022/10/11 01:41:49;;;;;;;14.48;13.07;;;;;;;14.48;66.90;95522.88;5116435;28;20210;-67
2022/10/11 01:44:36;;;;;;;16.23;13.15;;;;;;;14.47;67.39;95524.06;5116345;28;20276;-68
2022/10/11 01:47:24;;;;;;;15.38;13.73;;;;;;;14.45;67.09;95511.34;5116592;28;20183;-68
2022/10/11 01:50:35;;;;;;;14.73;13.43;;;;;;;14.43;67.39;95518.44;5116717;28;20609;-68
2022/10/11 01:53:31;;;;;;;14.55;13.15;;;;;;;14.41;67.32;95513.22;5116490;28;20658;-68
2022/10/11 01:56:32;;;;;;;13.90;12.60;;;;;;;14.39;67.50;95523.09;5101134;28;20229;-67
2022/10/11 01:59:28;;;;;;;15.95;14.35;;;;;;;14.39;67.51;95518.34;5116344;28;20301;-67
2022/10/11 02:02:26;;;;;;;14.73;13.02;;;;;;;14.38;67.44;95516.75;5116289;28;20187;-67
2022/10/11 02:05:17;;;;;;;15.23;13.57;;;;;;;14.38;67.30;95515.97;5102119;28;20191;-68
2022/10/11 02:08:07;;;;;;;15.27;13.73;;;;;;;14.37;67.38;95512.38;5116491;28;20607;-68
2022/10/11 02:10:57;;;;;;;15.48;13.95;;;;;;;14.36;67.39;95515.50;5116102;28;20183;-68
2022/10/11 02:13:47;;;;;;;15.88;14.25;;;;;;;14.34;67.27;95515.91;5116124;28;20183;-68
2022/10/11 02:16:38;;;;;;;15.27;13.82;;;;;;;14.33;67.16;95514.25;5115943;28;20202;-67
2022/10/11 02:19:28;;;;;;;16.60;15.02;;;;;;;14.33;67.48;95507.91;5116123;28;20207;-67
2022/10/11 02:22:17;;;;;;;16.13;14.45;;;;;;;14.29;67.87;95507.84;5116208;28;20236;-67
2022/10/11 02:25:08;;;;;;;17.05;15.30;;;;;;;14.28;67.56;95503.47;5115963;28;20195;-67
2022/10/11 02:27:55;;;;;;;16.45;14.85;;;;;;;14.26;67.77;95505.00;5115984;28;20492;-67
2022/10/11 02:30:41;;;;;;;15.15;13.60;;;;;;;14.23;67.75;95511.28;5116012;28;20634;-67
2022/10/11 02:33:31;;;;;;;16.67;15.02;;;;;;;14.21;67.72;95506.91;5115875;28;20182;-66
2022/10/11 02:36:23;;;;;;;16.30;14.70;;;;;;;14.18;67.80;95509.59;5115807;28;20281;-66
2022/10/11 02:39:16;;;;;;;16.77;15.05;;;;;;;14.18;67.77;95495.75;5117805;28;20234;-66
2022/10/11 02:42:02;;;;;;;16.40;14.80;;;;;;;14.16;67.53;95496.13;5120182;28;20187;-67
2022/10/11 02:44:58;;;;;;;16.92;15.32;;;;;;;14.16;67.99;95490.56;5120015;28;20182;-67
2022/10/11 02:47:44;;;;;;;17.15;14.93;;;;;;;14.16;67.81;95496.13;5120106;28;20179;-67
2022/10/11 02:50:29;;;;;;;16.35;14.73;;;;;;;14.15;67.79;95494.50;5119920;28;20292;-67
2022/10/11 02:53:16;;;;;;;16.30;14.48;;;;;;;14.10;67.65;95496.78;5120005;28;20240;-67
2022/10/11 02:56:01;;;;;;;16.70;15.05;;;;;;;14.10;67.65;95496.78;5119541;28;20631;-67
2022/10/11 02:58:47;;;;;;;16.92;15.02;;;;;;;14.10;67.97;95494.00;5119648;28;20202;-67
2022/10/11 03:01:33;;;;;;;17.02;15.13;;;;;;;14.11;67.83;95496.38;5119520;28;20195;-67
2022/10/11 03:04:18;;;;;;;16.80;15.13;;;;;;;14.08;67.96;95488.78;5119484;28;20182;-67
2022/10/11 03:07:04;;;;;;;17.92;15.57;;;;;;;14.04;68.06;95493.47;5119691;28;20280;-67
2022/10/11 03:09:50;;;;;;;16.70;14.93;;;;;;;14.02;68.00;95487.50;5119503;28;20288;-67
2022/10/11 03:12:36;;;;;;;17.75;15.90;;;;;;;14.02;68.08;95486.69;5119483;28;20191;-67
2022/10/11 03:15:21;;;;;;;17.98;16.08;;;;;;;14.03;68.12;95482.75;5119124;28;20187;-67
2022/10/11 03:18:07;;;;;;;18.15;16.25;;;;;;;14.02;68.26;95495.03;5119086;28;20187;-67
2022/10/11 03:20:52;;;;;;;16.70;15.00;;;;;;;13.97;68.44;95493.31;5119304;28;20320;-67
2022/10/11 03:23:38;;;;;;;17.38;15.57;;;;;;;13.99;68.37;95484.66;5119309;28;20187;-67
2022/10/11 03:26:25;;;;;;;16.95;15.07;;;;;;;13.98;68.34;95486.63;5119239;28;20187;-67
2022/10/11 03:29:12;;;;;;;17.50;15.65;;;;;;;13.97;68.62;95488.56;5118847;28;20195;-67
2022/10/11 03:31:57;;;;;;;17.75;15.63;;;;;;;13.99;68.37;95482.69;5118887;28;20251;-67
2022/10/11 03:34:43;;;;;;;18.33;16.25;;;;;;;14.02;68.21;95483.94;5118833;28;20186;-67
2022/10/11 03:37:28;;;;;;;16.25;14.65;;;;;;;14.00;68.29;95475.16;5119095;28;20190;-68
2022/10/11 03:40:14;;;;;;;16.70;15.00;;;;;;;14.00;68.24;95486.25;5118949;28;20534;-67
2022/10/11 03:43:00;;;;;;;16.83;15.13;;;;;;;14.00;68.29;95481.50;5118942;28;20187;-67
2022/10/11 03:45:46;;;;;;;17.45;15.00;;;;;;;13.99;68.30;95477.13;5118914;28;20191;-67
2022/10/11 03:48:31;;;;;;;17.02;15.30;;;;;;;14.01;68.37;95471.22;5118857;28;20191;-67
2022/10/11 03:51:18;;;;;;;16.73;15.02;;;;;;;13.97;68.50;95471.94;5118090;28;20186;-67
2022/10/11 03:54:03;;;;;;;17.45;15.60;;;;;;;13.96;68.36;95466.75;5118916;28;20320;-67
2022/10/11 03:56:48;;;;;;;16.33;14.43;;;;;;;13.97;68.48;95465.59;5118655;28;20611;-67
2022/10/11 03:59:35;;;;;;;16.00;14.30;;;;;;;13.97;68.62;95469.16;5118213;28;20314;-67
2022/10/11 04:02:21;;;;;;;16.60;14.82;;;;;;;13.93;68.59;95471.06;5118366;28;20272;-67
2022/10/11 04:05:07;;;;;;;17.05;14.10;;;;;;;13.94;68.69;95477.41;5118463;28;20191;-67
2022/10/11 04:07:53;;;;;;;17.00;15.20;;;;;;;13.95;68.71;95470.72;5118510;28;20626;-67
2022/10/11 04:10:40;;;;;;;15.95;14.25;;;;;;;13.87;69.22;95472.53;5118508;28;20206;-69
2022/10/11 04:13:25;;;;;;;18.52;14.30;;;;;;;13.85;69.05;95474.06;5118279;28;20186;-68
2022/10/11 04:16:12;;;;;;;15.95;14.25;;;;;;;13.81;69.19;95474.00;5118280;28;20273;-68
2022/10/11 04:18:57;;;;;;;14.93;13.32;;;;;;;13.83;69.07;95479.16;5118143;28;20187;-68
2022/10/11 04:21:42;;;;;;;15.50;13.77;;;;;;;13.90;68.99;95471.00;5118435;28;20190;-67
2022/10/11 04:24:28;;;;;;;16.80;13.63;;;;;;;13.91;69.04;95470.63;5117929;28;20198;-67
2022/10/11 04:27:13;;;;;;;15.27;12.82;;;;;;;13.91;68.95;95467.88;5118242;28;20324;-68
2022/10/11 04:29:59;;;;;;;15.00;13.05;;;;;;;13.92;68.80;95468.66;5118257;28;20202;-69
2022/10/11 04:32:46;;;;;;;18.00;14.23;;;;;;;13.91;69.06;95467.88;5118026;28;20230;-69
2022/10/11 04:35:31;;;;;;;16.27;14.57;;;;;;;13.90;69.27;95465.44;5118035;28;20195;-68
2022/10/11 04:38:17;;;;;;;15.82;14.13;;;;;;;13.83;69.30;95468.88;5117627;28;20622;-68
2022/10/11 04:41:06;;;;;;;16.80;15.00;;;;;;;13.86;69.05;95476.47;5117527;28;20300;-68
2022/10/11 04:43:51;;;;;;;18.95;15.45;;;;;;;13.88;69.37;95478.88;5117646;28;20242;-68
2022/10/11 04:46:37;;;;;;;17.73;14.60;;;;;;;13.89;69.12;95474.94;5117749;28;20182;-68
2022/10/11 04:49:24;;;;;;;16.40;14.80;;;;;;;13.88;69.21;95476.13;5117759;28;20229;-68
2022/10/11 04:52:09;;;;;;;16.20;14.30;;;;;;;13.87;69.33;95480.03;5117717;28;20246;-68
2022/10/11 04:54:39;;;;;;;15.73;14.20;;;;;;;13.86;69.41;95472.88;5117730;28;20240;-68
2022/10/11 04:57:05;;;;;;;15.75;14.02;;;;;;;13.87;69.58;95482.81;5117349;28;20596;-69
2022/10/11 04:59:32;;;;;;;18.48;15.13;;;;;;;13.87;69.74;95475.31;5117434;28;20180;-68
2022/10/11 05:01:59;;;;;;;18.25;15.63;;;;;;;13.89;69.45;95480.47;5116427;28;20180;-68
2022/10/11 05:04:27;;;;;;;16.23;13.95;;;;;;;13.86;69.73;95479.22;5099493;28;20619;-68
2022/10/11 05:06:54;;;;;;;18.30;15.52;;;;;;;13.85;69.90;95477.63;5099684;28;20188;-68
2022/10/11 05:09:22;;;;;;;18.35;15.30;;;;;;;13.85;70.14;95480.41;5117255;28;20184;-68
2022/10/11 05:11:48;;;;;;;17.65;15.32;;;;;;;13.81;70.73;95487.84;5099199;28;20579;-68
2022/10/11 05:14:15;;;;;;;17.80;15.95;;;;;;;13.73;70.97;95488.88;5099579;28;20192;-70
2022/10/11 05:16:42;;;;;;;16.17;14.48;;;;;;;13.65;70.77;95487.91;5117494;28;20191;-69
2022/10/11 05:19:09;;;;;;;16.90;15.10;;;;;;;13.61;70.94;95489.78;5099393;28;20196;-69
2022/10/11 05:21:37;;;;;;;16.77;14.73;;;;;;;13.57;70.56;95485.31;5099317;28;20306;-68
2022/10/11 05:24:04;;;;;;;16.98;14.95;;;;;;;13.49;70.78;95485.16;5099897;28;20207;-68
2022/10/11 05:26:31;;;;;;;17.83;15.18;;;;;;;13.46;70.74;95494.19;5116247;28;20218;-67
2022/10/11 05:28:58;;;;;;;19.55;14.98;;;;;;;13.48;70.78;95496.63;5116701;28;20183;-68
2022/10/11 05:31:26;;;;;;;16.52;14.82;;;;;;;13.47;71.06;95508.84;5099211;28;20192;-67
2022/10/11 05:33:53;;;;;;;16.80;15.10;;;;;;;13.49;71.47;95514.84;5099299;28;20522;-68
2022/10/11 05:36:19;;;;;;;19.20;14.93;;;;;;;13.48;71.55;95519.59;5099063;28;20507;-68
2022/10/11 05:38:48;;;;;;;20.83;16.42;;;;;;;13.48;71.24;95516.03;5099105;28;20206;-67
2022/10/11 05:41:16;;;;;;;16.20;14.60;;;;;;;13.48;71.49;95522.38;5099086;28;20227;-66
2022/10/11 05:43:43;;;;;;;17.48;15.43;;;;;;;13.48;71.64;95513.25;5116389;28;20187;-66
2022/10/11 05:46:10;;;;;;;17.15;15.45;;;;;;;13.49;71.79;95515.66;5116830;28;20188;-68
2022/10/11 05:48:37;;;;;;;16.67;14.77;;;;;;;13.56;71.66;95511.44;5116287;28;20259;-67
2022/10/11 05:51:05;;;;;;;16.80;15.10;;;;;;;13.59;71.71;95497.66;5116544;28;20188;-69
2022/10/11 05:53:33;;;;;;;18.00;15.77;;;;;;;13.62;71.88;95491.41;5116947;28;20231;-68
2022/10/11 05:56:01;;;;;;;17.58;15.73;;;;;;;13.68;72.08;95494.69;5117044;28;20180;-68
2022/10/11 05:58:28;;;;;;;19.38;17.33;;;;;;;13.75;71.72;95494.84;5116596;28;20198;-66
2022/10/11 06:00:55;;;;;;;18.48;15.32;;;;;;;13.81;71.29;95498.94;5116890;28;20207;-67
2022/10/11 06:03:23;;;;;;;18.17;15.43;;;;;;;13.85;70.90;95497.03;5116676;28;20172;-67
2022/10/11 06:05:49;;;;;;;15.40;13.80;;;;;;;13.90;70.86;95498.72;5099206;28;20600;-67
2022/10/11 06:08:16;;;;;;;14.93;13.15;;;;;;;13.92;70.71;95488.88;5116924;28;20191;-69
2022/10/11 06:13:29;;;;;;;13.73;12.32;;;;;;;13.94;70.71;95486.56;5115788;28;20391;-68
2022/10/11 06:15:55;;;;;;;14.23;11.82;;;;;;;13.95;70.44;95488.16;5116988;28;20203;-68
2022/10/11 06:18:22;;;;;;;15.55;12.80;;;;;;;13.95;70.54;95487.34;5116514;28;20202;-68
2022/10/11 06:20:49;;;;;;;12.73;11.30;;;;;;;13.95;70.31;95484.59;5098828;28;20249;-69
2022/10/11 06:23:15;;;;;;;14.18;12.55;;;;;;;13.95;70.14;95485.38;5098575;28;20192;-69
2022/10/11 06:25:42;;;;;;;14.55;12.15;;;;;;;13.95;70.13;95488.16;5099614;28;20203;-70
2022/10/11 06:28:09;;;;;;;14.70;13.10;;;;;;;13.97;70.12;95487.78;5116127;28;20188;-69
2022/10/11 06:30:38;;;;;;;16.25;13.98;;;;;;;13.94;70.02;95503.19;5115564;28;20522;-70
2022/10/11 06:33:05;;;;;;;16.65;12.98;;;;;;;13.98;69.96;95500.50;5115977;28;20196;-69
2022/10/11 06:35:32;;;;;;;14.50;12.68;;;;;;;14.00;69.97;95505.66;5097898;28;20214;-69
2022/10/11 06:37:59;;;;;;;15.32;13.25;;;;;;;13.98;69.91;95511.59;5115952;28;20188;-70
2022/10/11 06:40:25;;;;;;;13.63;12.23;;;;;;;13.95;70.10;95515.88;5098599;28;20208;-70
2022/10/11 06:42:52;;;;;;;12.85;11.55;;;;;;;13.96;69.98;95517.47;5098325;28;20195;-70
2022/10/11 06:45:19;;;;;;;13.52;12.13;;;;;;;13.97;69.91;95521.84;5097724;28;20230;-67
2022/10/11 06:47:47;;;;;;;15.30;11.65;;;;;;;14.00;69.89;95523.09;5116221;28;20184;-70
2022/10/11 06:50:14;;;;;;;13.70;12.18;;;;;;;14.03;70.00;95516.84;5098784;28;20187;-68
2022/10/11 06:52:41;;;;;;;16.15;13.30;;;;;;;14.06;70.04;95532.75;5105897;28;20647;-68
2022/10/11 06:55:08;;;;;;;16.05;14.00;;;;;;;14.10;70.47;95527.28;5119039;28;20182;-68
2022/10/11 06:57:35;;;;;;;18.63;15.07;;;;;;;14.13;70.78;95535.69;5118948;28;20252;-67
2022/10/11 07:00:02;;;;;;;17.02;14.23;;;;;;;14.16;71.10;95534.13;5118933;28;20530;-66
2022/10/11 07:02:28;;;;;;;19.23;15.00;;;;;;;14.20;71.27;95530.28;5137191;28;20187;-68
2022/10/11 07:04:56;;;;;;;19.60;15.27;;;;;;;14.22;71.33;95538.22;5136864;28;20232;-69
2022/10/11 07:07:23;;;;;;;21.30;16.83;;;;;;;14.24;71.58;95535.91;5136339;28;20183;-70
2022/10/11 07:09:50;;;;;;;21.77;16.23;;;;;;;14.27;71.86;95535.16;5118701;28;20194;-71
2022/10/11 07:12:17;;;;;;;21.17;16.33;;;;;;;14.30;71.78;95537.19;5136659;28;20240;-70
2022/10/11 07:14:44;;;;;;;20.88;15.57;;;;;;;14.33;71.79;95528.13;5119073;28;20213;-70
2022/10/11 07:17:10;;;;;;;20.70;16.13;;;;;;;14.33;71.92;95517.03;5118468;28;20187;-70
2022/10/11 07:19:37;;;;;;;29.10;24.33;;;;;;;14.33;72.29;95511.50;5118539;28;20203;-67
2022/10/11 07:22:05;;;;;;;29.95;23.05;;;;;;;14.32;71.78;95509.91;5136522;28;20207;-70
2022/10/11 07:24:32;;;;;;;29.02;22.52;;;;;;;14.34;72.23;95515.06;5118561;27;20202;-70
2022/10/11 07:26:59;;;;;;;20.17;15.95;;;;;;;14.36;72.12;95532.16;5122050;27;20202;-70
2022/10/11 07:29:25;;;;;;;18.00;15.10;;;;;;;14.38;71.81;95540.94;5140799;27;20195;-69
2022/10/11 07:31:52;;;;;;;21.85;16.30;;;;;;;14.40;71.64;95538.59;5122425;27;20285;-70
2022/10/11 07:34:21;;;;;;;22.08;15.65;;;;;;;14.43;72.18;95535.88;5122716;27;20206;-70
2022/10/11 07:36:48;;;;;;;20.27;14.18;;;;;;;14.45;72.20;95530.78;5105432;27;20294;-70
2022/10/11 07:39:16;;;;;;;21.23;16.27;;;;;;;14.47;72.22;95535.94;5122510;27;20191;-70
2022/10/11 07:41:43;;;;;;;19.27;14.38;;;;;;;14.52;71.89;95529.31;5140158;27;20203;-70
2022/10/11 07:44:10;;;;;;;21.63;15.88;;;;;;;14.52;71.89;95532.09;5140379;27;20189;-69
2022/10/11 07:46:37;;;;;;;19.40;16.42;;;;;;;14.53;72.02;95533.72;5139629;27;20591;-69
2022/10/11 07:49:06;;;;;;;19.23;15.77;;;;;;;14.53;71.53;95530.94;5139815;27;20179;-71
2022/10/11 07:51:33;;;;;;;18.77;15.65;;;;;;;14.52;71.70;95534.88;5122241;27;20266;-70
2022/10/11 07:54:00;;;;;;;21.05;15.88;;;;;;;14.52;71.83;95534.88;5121475;27;20234;-68
2022/10/11 07:56:30;;;;;;;17.98;14.65;;;;;;;14.53;71.48;95540.06;5139531;27;20191;-67
2022/10/11 07:58:59;;;;;;;19.67;14.82;;;;;;;14.53;71.31;95537.28;5139690;27;20183;-68
2022/10/11 08:01:26;;;;;;;19.00;14.82;;;;;;;14.51;71.18;95527.72;5139178;27;20264;-67
2022/10/11 08:03:53;;;;;;;16.80;14.10;;;;;;;14.50;71.05;95529.69;5139036;27;20213;-67
2022/10/11 08:06:22;;;;;;;19.17;14.98;;;;;;;14.52;70.99;95529.31;5120812;27;20484;-69
2022/10/11 08:08:49;;;;;;;18.27;15.07;;;;;;;14.50;71.39;95526.94;5121365;27;20271;-69
2022/10/11 08:11:21;;;;;;;19.42;14.48;;;;;;;14.52;71.27;95532.91;5121146;27;20187;-70
2022/10/11 08:13:49;;;;;;;17.83;13.73;;;;;;;14.56;71.15;95531.03;5139866;27;20219;-70
2022/10/11 08:16:16;;;;;;;19.92;13.80;;;;;;;14.59;71.04;95535.81;5122476;27;20194;-72
2022/10/11 08:18:42;;;;;;;16.67;13.70;;;;;;;14.62;70.73;95532.31;5139321;27;20248;-71
2022/10/11 08:21:12;;;;;;;16.95;14.77;;;;;;;14.67;70.59;95545.09;5121312;27;20211;-70
2022/10/11 08:23:39;;;;;;;19.77;14.85;;;;;;;14.71;70.72;95547.94;5121365;27;20199;-69
2022/10/11 08:26:06;;;;;;;19.77;14.52;;;;;;;14.72;70.41;95553.13;5138906;27;20234;-69
2022/10/11 08:28:33;;;;;;;18.35;14.55;;;;;;;14.72;70.69;95547.56;5138918;27;20490;-70
2022/10/11 08:31:02;;;;;;;18.17;14.55;;;;;;;14.73;70.39;95546.38;5121347;27;20202;-69
2022/10/11 08:33:29;;;;;;;16.00;13.90;;;;;;;14.74;70.36;95545.22;5138784;27;20191;-71
2022/10/11 08:35:57;;;;;;;18.42;14.57;;;;;;;14.76;70.45;95537.31;5138490;27;20183;-72
2022/10/11 08:38:24;;;;;;;18.27;15.20;;;;;;;14.77;70.45;95541.69;5120554;27;20205;-66
2022/10/11 08:40:54;;;;;;;18.45;14.32;;;;;;;14.78;70.45;95542.50;5138699;27;20225;-71
2022/10/11 08:43:32;;;;;;;20.95;14.57;;;;;;;14.76;70.21;95537.31;5139336;27;20210;-70
2022/10/11 08:46:01;;;;;;;17.42;14.30;;;;;;;14.78;70.65;95542.50;5121296;27;20194;-70
2022/10/11 08:48:33;;;;;;;18.05;14.32;;;;;;;14.80;70.10;95542.94;5121339;27;20191;-71
2022/10/11 08:51:01;;;;;;;19.08;14.63;;;;;;;14.82;70.37;95535.06;5120494;27;20198;-70
2022/10/11 08:53:36;;;;;;;21.45;15.10;;;;;;;14.77;70.51;95544.47;5120392;27;20231;-69
2022/10/11 08:56:04;;;;;;;17.90;14.45;;;;;;;14.78;70.16;95543.31;5120595;27;20206;-69
2022/10/11 08:58:37;;;;;;;19.17;14.27;;;;;;;14.82;70.33;95541.41;5138717;27;20198;-72
2022/10/11 09:01:07;;;;;;;16.83;13.77;;;;;;;14.83;70.51;95539.44;5138062;27;20207;-72
2022/10/11 09:03:38;;;;;;;15.68;12.73;;;;;;;14.87;70.27;95543.88;5138004;27;20258;-71
2022/10/11 09:06:12;;;;;;;16.52;12.88;;;;;;;14.88;70.41;95537.13;5120564;27;20195;-71
2022/10/11 09:08:52;;;;;;;18.98;14.00;;;;;;;14.89;70.36;95532.41;5138145;27;20190;-71
2022/10/11 09:11:26;;;;;;;16.35;13.70;;;;;;;14.87;70.53;95531.97;5120095;27;20191;-71
2022/10/11 09:14:03;;;;;;;17.27;13.80;;;;;;;14.87;70.28;95531.97;5120349;27;20191;-72
2022/10/11 09:16:41;;;;;;;17.30;14.23;;;;;;;14.90;70.75;95536.78;5120205;27;20215;-70
2022/10/11 09:19:28;;;;;;;19.48;15.25;;;;;;;14.97;70.82;95541.69;5138064;27;20183;-69
2022/10/11 09:21:59;;;;;;;19.20;14.80;;;;;;;15.01;69.99;95532.22;5138255;27;20222;-70
2022/10/11 09:24:44;;;;;;;17.75;13.52;;;;;;;15.06;70.02;95537.47;5121006;27;20273;-70
2022/10/11 09:27:19;;;;;;;17.40;13.63;;;;;;;15.10;69.80;95531.97;5138942;27;20252;-70
2022/10/11 09:30:00;;;;;;;20.20;13.90;;;;;;;15.15;70.34;95526.91;5138734;27;20203;-70
2022/10/11 09:32:30;;;;;;;17.58;13.02;;;;;;;15.19;69.55;95520.63;5121063;27;20203;-67
2022/10/11 09:35:01;;;;;;;15.45;13.13;;;;;;;15.23;69.41;95524.25;5118974;27;20191;-67
2022/10/11 09:37:32;;;;;;;16.15;13.13;;;;;;;15.28;69.79;95523.94;5118786;27;20195;-66
2022/10/11 09:40:03;;;;;;;18.73;13.77;;;;;;;15.35;69.57;95524.03;5102796;27;20209;-66
2022/10/11 09:42:30;;;;;;;16.65;13.60;;;;;;;15.40;69.34;95518.19;5119469;27;20231;-68
2022/10/11 09:44:58;;;;;;;15.70;13.13;;;;;;;15.47;69.67;95521.09;5137466;27;20191;-68
2022/10/11 09:47:28;;;;;;;16.85;13.32;;;;;;;15.55;69.33;95520.00;5137570;27;20185;-70
2022/10/11 09:49:59;;;;;;;17.35;13.65;;;;;;;15.62;69.11;95522.91;5137476;27;20206;-69
2022/10/11 09:52:26;;;;;;;16.42;12.57;;;;;;;15.71;68.81;95516.28;5115617;28;20254;-70
2022/10/11 09:54:55;;;;;;;15.48;12.52;;;;;;;15.75;67.75;95515.16;5134423;27;20190;-70
2022/10/11 09:57:24;;;;;;;14.57;12.68;;;;;;;15.85;67.71;95514.50;5138333;27;20246;-71
2022/10/11 10:00:00;;;;;;;15.65;14.00;;;;;;;15.87;66.49;95506.59;5120195;27;20191;-70
2022/10/11 10:02:27;;;;;;;15.85;13.98;;;;;;;15.91;67.24;95515.00;5119630;27;20210;-71
2022/10/11 10:05:06;;;;;;;15.65;12.77;;;;;;;15.99;67.08;95505.56;5137206;27;20191;-71
2022/10/11 10:07:35;;;;;;;16.45;10.85;;;;;;;16.08;67.12;95492.16;5136519;27;20202;-70
2022/10/11 10:10:26;;;;;;;15.98;12.20;;;;;;;16.21;66.63;95501.06;5119538;27;20191;-70
2022/10/11 10:12:54;;;;;;;15.20;12.68;;;;;;;16.24;66.33;95497.53;5118912;27;20183;-70
2022/10/11 10:15:22;;;;;;;13.95;12.10;;;;;;;16.23;65.62;95497.91;5119192;27;20187;-69
2022/10/11 10:17:50;;;;;;;14.40;12.32;;;;;;;16.24;65.52;95497.53;5120256;27;20195;-69
2022/10/11 10:20:23;;;;;;;14.07;11.55;;;;;;;16.25;65.47;95495.53;5137738;27;20191;-72
2022/10/11 10:22:49;;;;;;;14.25;12.75;;;;;;;16.26;65.60;95497.94;5136882;27;20264;-72
2022/10/11 10:25:22;;;;;;;12.70;11.27;;;;;;;16.32;65.68;95492.84;5136896;27;20191;-71
2022/10/11 10:27:57;;;;;;;13.55;11.60;;;;;;;16.34;65.46;95480.16;5137936;27;20240;-70
2022/10/11 10:30:24;;;;;;;12.98;11.57;;;;;;;16.35;65.43;95487.31;5138659;27;20262;-70
2022/10/11 10:32:56;;;;;;;14.77;12.55;;;;;;;16.35;65.31;95476.19;5120133;28;20220;-70
2022/10/11 10:35:34;;;;;;;15.35;12.68;;;;;;;16.38;65.55;95485.78;5137458;27;20183;-69
2022/10/11 10:38:07;;;;;;;13.63;11.98;;;;;;;16.34;65.32;95474.59;5120064;28;20251;-70
2022/10/11 10:40:40;;;;;;;14.65;12.45;;;;;;;16.33;65.87;95475.75;5119803;28;20216;-70
2022/10/11 10:43:14;;;;;;;15.38;12.73;;;;;;;16.32;65.97;95476.94;5137524;28;20199;-69
2022/10/11 10:45:54;;;;;;;17.08;13.38;;;;;;;16.30;66.18;95464.59;5119408;28;20195;-70
2022/10/11 10:48:26;;;;;;;15.65;12.40;;;;;;;16.34;66.16;95459.88;5137048;28;20547;-70
2022/10/11 10:50:56;;;;;;;15.95;12.43;;;;;;;16.43;65.62;95462.34;5118851;28;20195;-71
2022/10/11 10:53:27;;;;;;;13.82;12.07;;;;;;;16.52;65.96;95465.63;5123399;28;20285;-70
2022/10/11 10:56:00;;;;;;;14.77;11.82;;;;;;;16.64;65.75;95459.00;5116100;28;20199;-70
2022/10/11 10:58:42;;;;;;;15.75;12.38;;;;;;;16.67;65.69;95455.44;5115404;28;20188;-70
2022/10/11 11:01:13;;;;;;;15.15;12.63;;;;;;;16.75;64.89;95455.16;5117911;28;20187;-69
2022/10/11 11:03:44;;;;;;;13.48;11.90;;;;;;;16.81;65.12;95455.59;5119718;28;20203;-70
2022/10/11 11:06:19;;;;;;;14.07;12.02;;;;;;;16.93;65.00;95446.16;5120328;28;20202;-71
2022/10/11 11:08:57;;;;;;;14.43;12.80;;;;;;;17.05;64.78;95451.44;5120492;28;20183;-71
2022/10/11 11:11:32;;;;;;;15.05;12.50;;;;;;;17.12;63.93;95445.91;5102820;28;20630;-70
2022/10/11 11:14:04;;;;;;;17.40;12.50;;;;;;;17.13;63.34;95436.38;5121183;28;20187;-69
2022/10/11 11:16:35;;;;;;;15.90;12.95;;;;;;;17.09;63.30;95436.34;5120657;28;20203;-70
2022/10/11 11:19:09;;;;;;;13.90;12.48;;;;;;;17.02;62.68;95438.28;5120860;28;20188;-70
2022/10/11 11:21:43;;;;;;;17.33;12.50;;;;;;;16.95;63.18;95441.00;5120897;28;20178;-69
2022/10/11 11:24:17;;;;;;;15.98;12.98;;;;;;;16.90;63.46;95435.78;5102919;28;20203;-69
2022/10/11 11:26:48;;;;;;;14.57;12.50;;;;;;;16.86;63.00;95443.31;5103280;28;20192;-69
2022/10/11 11:29:24;;;;;;;14.48;12.20;;;;;;;16.80;62.84;95428.94;5120650;28;20188;-70
2022/10/11 11:32:08;;;;;;;13.52;11.48;;;;;;;16.77;63.14;95438.06;5103083;28;20258;-70
2022/10/11 11:34:37;;;;;;;15.10;12.48;;;;;;;16.75;62.73;95432.88;5120613;28;20199;-70
2022/10/11 11:37:10;;;;;;;13.07;11.60;;;;;;;16.75;62.97;95424.53;5121075;28;20202;-71
2022/10/11 11:39:42;;;;;;;14.27;11.88;;;;;;;16.78;63.40;95425.75;5120667;28;20183;-70
2022/10/11 11:42:12;;;;;;;14.82;12.63;;;;;;;16.84;63.48;95422.19;5120097;28;20208;-70
2022/10/11 11:44:43;;;;;;;13.27;11.30;;;;;;;16.87;62.97;95420.63;5101487;28;20211;-72
2022/10/11 11:47:16;;;;;;;14.52;12.50;;;;;;;16.91;63.04;95417.88;5084251;28;20631;-71
2022/10/11 11:49:45;;;;;;;14.02;12.45;;;;;;;16.92;63.45;95420.28;5119592;28;20215;-70
2022/10/11 11:52:23;;;;;;;14.48;12.73;;;;;;;16.90;62.88;95419.88;5104580;27;20242;-70
2022/10/11 11:54:54;;;;;;;13.60;11.60;;;;;;;16.86;62.24;95418.25;5139815;27;20198;-72
2022/10/11 11:57:27;;;;;;;16.00;12.88;;;;;;;16.86;63.20;95415.47;5139913;27;20202;-69
2022/10/11 11:59:59;;;;;;;14.05;12.35;;;;;;;16.83;63.54;95412.25;5140933;27;20606;-69
2022/10/11 12:02:37;;;;;;;14.25;12.23;;;;;;;16.82;62.87;95401.50;5139679;27;20207;-68
2022/10/11 12:05:06;;;;;;;14.25;12.50;;;;;;;16.80;63.50;95413.00;5121213;27;20289;-68